Time;durP1;ratioP1;P1;durP2;ratioP2;P2;SDS_P1;SDS_P2;PMS_P1;PMS_P2;Temp;Humidity;BMP_temperature;BMP_pressure;BME280_temperature;BME280_humidity;BME280_pressure;Samples;Min_cycle;Max_cycle;Signal;HPM_P1;HPM_P2
2023/08/29 00:00:30;;;;;;;0.43;0.20;;;12.60;99.90;;;;;;4950061;28;20055;-88
2023/08/29 00:02:56;;;;;;;0.40;0.20;;;12.50;99.90;;;;;;4944232;29;20067;-87
2023/08/29 00:05:22;;;;;;;0.75;0.30;;;12.50;99.90;;;;;;4950651;28;20090;-88
2023/08/29 00:07:47;;;;;;;1.30;0.25;;;12.50;99.90;;;;;;4950052;28;20440;-88
2023/08/29 00:10:13;;;;;;;0.70;0.20;;;12.50;99.90;;;;;;4947344;28;20032;-88
2023/08/29 00:12:42;;;;;;;2.15;0.30;;;12.40;99.90;;;;;;4942907;28;20037;-89
2023/08/29 00:15:10;;;;;;;0.63;0.30;;;12.40;99.90;;;;;;4958168;28;20050;-89
2023/08/29 00:17:35;;;;;;;0.50;0.30;;;12.40;99.90;;;;;;4951423;28;20033;-88
2023/08/29 00:20:02;;;;;;;1.38;0.30;;;12.40;99.90;;;;;;4963772;28;20125;-88
2023/08/29 00:22:28;;;;;;;0.90;0.30;;;12.40;99.90;;;;;;4947786;28;20038;-87
2023/08/29 00:24:56;;;;;;;0.88;0.30;;;12.40;99.90;;;;;;4949686;28;20381;-88
2023/08/29 00:27:22;;;;;;;0.63;0.22;;;12.30;99.90;;;;;;4946902;28;20083;-88
2023/08/29 00:29:48;;;;;;;0.95;0.30;;;12.30;99.90;;;;;;4948527;28;20026;-87
2023/08/29 00:32:14;;;;;;;0.95;0.30;;;12.40;99.90;;;;;;4963598;28;20475;-88
2023/08/29 00:34:41;;;;;;;0.60;0.30;;;12.30;99.90;;;;;;4963816;28;20042;-89
2023/08/29 00:37:07;;;;;;;0.65;0.30;;;12.40;99.90;;;;;;4961046;28;20073;-88
2023/08/29 00:39:33;;;;;;;0.80;0.30;;;12.40;99.90;;;;;;4947143;28;20035;-89
2023/08/29 00:42:00;;;;;;;0.68;0.30;;;12.40;99.90;;;;;;4961456;28;20189;-88
2023/08/29 00:44:26;;;;;;;0.63;0.30;;;12.30;99.90;;;;;;4944971;28;20037;-89
2023/08/29 00:46:52;;;;;;;1.10;0.30;;;12.20;99.90;;;;;;4959746;28;20102;-88
2023/08/29 00:49:22;;;;;;;0.75;0.30;;;12.30;99.90;;;;;;4949035;28;20027;-87
2023/08/29 00:51:48;;;;;;;1.15;0.40;;;12.30;99.90;;;;;;4950401;28;20050;-88
2023/08/29 00:54:17;;;;;;;1.00;0.40;;;12.30;99.90;;;;;;4960576;28;20189;-88
2023/08/29 00:56:44;;;;;;;1.38;0.40;;;12.20;99.90;;;;;;4970365;28;20049;-88
2023/08/29 00:59:10;;;;;;;0.80;0.40;;;12.20;99.90;;;;;;4948314;28;20546;-88
2023/08/29 01:01:36;;;;;;;0.93;0.50;;;12.20;99.90;;;;;;4951540;28;20142;-88
2023/08/29 01:04:02;;;;;;;1.67;0.30;;;12.20;99.90;;;;;;4948041;28;20146;-88
2023/08/29 01:06:30;;;;;;;0.68;0.30;;;12.20;99.90;;;;;;4952602;28;20031;-88
2023/08/29 01:08:58;;;;;;;0.90;0.30;;;12.20;99.90;;;;;;4951329;28;20204;-88
2023/08/29 01:11:33;;;;;;;0.75;0.30;;;12.20;99.90;;;;;;4953492;28;20036;-87
2023/08/29 01:14:25;;;;;;;1.35;0.35;;;12.20;99.90;;;;;;4950253;28;20054;-87
2023/08/29 01:17:12;;;;;;;1.13;0.40;;;12.30;99.90;;;;;;4952314;28;20163;-88
2023/08/29 01:19:40;;;;;;;1.20;0.40;;;12.40;99.90;;;;;;4951404;28;20027;-88
2023/08/29 01:22:24;;;;;;;1.10;0.40;;;12.30;99.90;;;;;;4951170;28;20121;-88
2023/08/29 01:24:57;;;;;;;1.05;0.40;;;12.30;99.90;;;;;;4964929;28;20039;-88
2023/08/29 01:27:25;;;;;;;0.90;0.40;;;12.30;99.90;;;;;;4963194;28;20440;-88
2023/08/29 01:29:51;;;;;;;1.55;0.35;;;12.20;99.90;;;;;;4952932;28;20058;-89
2023/08/29 01:32:18;;;;;;;1.63;0.30;;;12.20;99.90;;;;;;4952996;28;20101;-88
2023/08/29 01:34:44;;;;;;;2.50;0.50;;;12.20;99.90;;;;;;4968898;28;20046;-88
2023/08/29 01:37:09;;;;;;;1.00;0.40;;;12.10;99.90;;;;;;4948468;28;20415;-87
2023/08/29 01:39:36;;;;;;;1.33;0.38;;;12.20;99.90;;;;;;4949057;28;20031;-87
2023/08/29 01:42:02;;;;;;;1.00;0.45;;;12.20;99.90;;;;;;4941610;28;20027;-88
2023/08/29 01:44:28;;;;;;;1.23;0.45;;;12.10;99.90;;;;;;4962828;28;20031;-87
2023/08/29 01:46:54;;;;;;;1.08;0.30;;;12.20;99.90;;;;;;4965801;28;20031;-88
2023/08/29 01:49:19;;;;;;;1.35;0.40;;;12.10;99.90;;;;;;4954231;28;20463;-88
2023/08/29 01:51:45;;;;;;;1.13;0.50;;;12.20;99.90;;;;;;4965763;28;20031;-88
2023/08/29 01:54:12;;;;;;;0.88;0.40;;;12.00;99.90;;;;;;4952280;28;20081;-88
2023/08/29 01:56:39;;;;;;;0.70;0.30;;;12.10;99.90;;;;;;4962806;28;20058;-88
2023/08/29 01:59:06;;;;;;;0.85;0.30;;;12.20;99.90;;;;;;4950831;28;20031;-88
2023/08/29 02:01:34;;;;;;;1.02;0.40;;;12.20;99.90;;;;;;4951651;28;20410;-88
2023/08/29 02:03:59;;;;;;;1.23;0.40;;;12.20;99.90;;;;;;4962032;28;20094;-88
2023/08/29 02:06:25;;;;;;;2.55;0.45;;;12.10;99.90;;;;;;4961500;28;20066;-88
2023/08/29 02:08:51;;;;;;;1.00;0.50;;;12.00;99.90;;;;;;4962203;28;20024;-87
2023/08/29 02:11:16;;;;;;;1.40;0.47;;;12.00;99.90;;;;;;4949875;28;20027;-88
2023/08/29 02:13:43;;;;;;;1.10;0.40;;;12.00;99.90;;;;;;4950889;28;20024;-88
2023/08/29 02:16:10;;;;;;;0.80;0.40;;;12.00;99.90;;;;;;4965599;28;20089;-88
2023/08/29 02:18:35;;;;;;;1.15;0.50;;;11.90;99.90;;;;;;4950556;28;20491;-88
2023/08/29 02:21:02;;;;;;;0.90;0.40;;;11.90;99.90;;;;;;4953825;28;20026;-88
2023/08/29 02:23:28;;;;;;;1.67;0.68;;;11.90;99.90;;;;;;4951767;28;20484;-88
2023/08/29 02:26:04;;;;;;;1.25;0.50;;;11.90;99.90;;;;;;4951011;28;20043;-88
2023/08/29 02:28:35;;;;;;;1.48;0.50;;;11.80;99.90;;;;;;4954466;28;20085;-89
2023/08/29 02:31:05;;;;;;;1.73;0.50;;;11.80;99.90;;;;;;4965944;28;20094;-88
2023/08/29 02:33:33;;;;;;;1.40;0.50;;;11.70;99.90;;;;;;4946840;28;20119;-89
2023/08/29 02:35:59;;;;;;;1.20;0.40;;;11.70;99.90;;;;;;4947583;28;20042;-89
2023/08/29 02:38:24;;;;;;;1.00;0.40;;;11.70;99.90;;;;;;4948609;29;20019;-88
2023/08/29 02:40:50;;;;;;;2.40;0.40;;;11.60;99.90;;;;;;4949407;28;20499;-89
2023/08/29 02:43:16;;;;;;;1.40;0.50;;;11.60;99.90;;;;;;4949296;28;20050;-89
2023/08/29 02:45:42;;;;;;;1.05;0.43;;;11.70;99.90;;;;;;4964598;28;20468;-88
2023/08/29 02:48:07;;;;;;;1.70;0.60;;;11.70;99.90;;;;;;4947777;28;20534;-88
2023/08/29 02:50:33;;;;;;;1.52;0.40;;;11.60;99.90;;;;;;4944966;28;20034;-88
2023/08/29 02:52:59;;;;;;;1.30;0.40;;;11.70;99.90;;;;;;4948969;28;20031;-88
2023/08/29 02:55:25;;;;;;;0.70;0.40;;;11.70;99.90;;;;;;4952120;28;20314;-88
2023/08/29 02:57:51;;;;;;;1.10;0.40;;;11.60;99.90;;;;;;4949969;28;20031;-89
2023/08/29 03:00:18;;;;;;;1.30;0.40;;;11.80;99.90;;;;;;4948497;28;20455;-89
2023/08/29 03:02:44;;;;;;;0.80;0.40;;;11.70;99.90;;;;;;4947486;28;20451;-88
2023/08/29 03:05:10;;;;;;;0.82;0.30;;;11.70;99.90;;;;;;4948459;28;20142;-88
2023/08/29 03:07:35;;;;;;;1.10;0.40;;;11.80;99.90;;;;;;4950441;28;20490;-89
2023/08/29 03:10:02;;;;;;;1.10;0.40;;;11.80;99.90;;;;;;4965223;28;20023;-89
2023/08/29 03:12:30;;;;;;;0.75;0.30;;;11.80;99.90;;;;;;4952125;28;20118;-88
2023/08/29 03:14:55;;;;;;;0.82;0.40;;;11.90;99.90;;;;;;4950536;28;20130;-89
2023/08/29 03:17:22;;;;;;;0.80;0.40;;;11.90;99.90;;;;;;4963762;28;20019;-89
2023/08/29 03:19:49;;;;;;;1.23;0.40;;;12.00;99.90;;;;;;4957491;28;20031;-89
2023/08/29 03:22:15;;;;;;;1.65;0.40;;;11.90;99.90;;;;;;4949010;28;20023;-88
2023/08/29 03:24:45;;;;;;;1.10;0.60;;;11.90;99.90;;;;;;4950155;28;20090;-89
2023/08/29 03:27:10;;;;;;;;;;;11.80;99.90;;;;;;4948245;28;20027;-89
2023/08/29 03:29:36;;;;;;;1.55;0.30;;;11.70;99.90;;;;;;4952577;28;19956;-89
2023/08/29 03:32:02;;;;;;;1.35;0.50;;;11.80;99.90;;;;;;4949000;28;20038;-89
2023/08/29 03:34:28;;;;;;;1.63;0.40;;;11.80;99.90;;;;;;4947040;28;20225;-89
2023/08/29 03:36:53;;;;;;;0.90;0.40;;;11.80;99.90;;;;;;4946648;28;20035;-89
2023/08/29 03:39:19;;;;;;;1.33;0.40;;;11.70;99.90;;;;;;4949479;28;20182;-89
2023/08/29 03:41:45;;;;;;;1.65;0.50;;;11.70;99.90;;;;;;4950183;28;20158;-89
2023/08/29 03:44:12;;;;;;;1.65;0.50;;;11.70;99.90;;;;;;4951171;28;20030;-89
2023/08/29 03:46:38;;;;;;;1.23;0.50;;;11.70;99.90;;;;;;4947581;28;20031;-89
2023/08/29 03:49:03;;;;;;;1.42;0.75;;;11.70;99.90;;;;;;4945595;28;20031;-89
2023/08/29 03:51:30;;;;;;;1.10;0.50;;;11.70;99.90;;;;;;4946377;28;20114;-89
2023/08/29 03:53:56;;;;;;;1.05;0.40;;;11.80;99.90;;;;;;4948289;28;20034;-89
2023/08/29 03:56:22;;;;;;;1.30;0.50;;;11.70;99.90;;;;;;4950685;28;20030;-89
2023/08/29 03:58:50;;;;;;;1.10;0.50;;;11.70;99.90;;;;;;4944973;28;20097;-89
2023/08/29 04:01:19;;;;;;;2.00;0.45;;;11.70;99.90;;;;;;4947794;28;20027;-89
2023/08/29 04:03:45;;;;;;;1.08;0.47;;;11.70;99.90;;;;;;4947670;28;20042;-88
2023/08/29 04:06:11;;;;;;;3.10;0.55;;;11.70;99.90;;;;;;4946781;28;20162;-89
2023/08/29 04:08:37;;;;;;;1.10;0.50;;;11.60;99.90;;;;;;4949062;28;20110;-88
2023/08/29 04:11:03;;;;;;;1.25;0.45;;;11.60;99.90;;;;;;4949106;28;20522;-88
2023/08/29 04:13:29;;;;;;;1.20;0.50;;;11.60;99.90;;;;;;4943279;28;20029;-88
2023/08/29 04:16:00;;;;;;;1.30;0.50;;;11.60;99.90;;;;;;4950841;28;20038;-88
2023/08/29 04:18:25;;;;;;;2.60;0.50;;;11.60;99.90;;;;;;4959858;28;20107;-89
2023/08/29 04:20:51;;;;;;;1.73;0.50;;;11.60;99.90;;;;;;4946140;28;20467;-89
2023/08/29 04:23:17;;;;;;;1.20;0.50;;;11.50;99.90;;;;;;4950135;28;20030;-89
2023/08/29 04:25:42;;;;;;;1.77;0.50;;;11.50;99.90;;;;;;4947371;28;20046;-89
2023/08/29 04:28:09;;;;;;;1.20;0.47;;;11.60;99.90;;;;;;4946377;28;20082;-89
2023/08/29 04:30:35;;;;;;;1.13;0.40;;;11.60;99.90;;;;;;4949601;29;20484;-88
2023/08/29 04:33:01;;;;;;;1.58;0.50;;;11.60;99.90;;;;;;4952210;28;20399;-89
2023/08/29 04:35:27;;;;;;;1.00;0.50;;;11.60;99.90;;;;;;4948126;28;20035;-89
2023/08/29 04:37:54;;;;;;;1.50;0.70;;;11.60;99.90;;;;;;4952398;28;20074;-89
2023/08/29 04:40:21;;;;;;;1.00;0.50;;;11.60;99.90;;;;;;4969831;28;20046;-88
2023/08/29 04:42:47;;;;;;;0.90;0.45;;;11.60;99.90;;;;;;4953475;28;20050;-88
2023/08/29 04:45:13;;;;;;;1.08;0.60;;;11.60;99.90;;;;;;4952727;28;20162;-89
2023/08/29 04:47:39;;;;;;;1.13;0.45;;;11.50;99.90;;;;;;4948726;28;20031;-89
2023/08/29 04:50:06;;;;;;;1.30;0.50;;;11.50;99.90;;;;;;4952205;28;20150;-89
2023/08/29 04:52:32;;;;;;;1.27;0.50;;;11.60;99.90;;;;;;4948938;28;20062;-89
2023/08/29 04:54:58;;;;;;;2.10;0.50;;;11.50;99.90;;;;;;4949916;28;20126;-89
2023/08/29 04:57:25;;;;;;;1.65;0.50;;;11.60;99.90;;;;;;4965478;28;20027;-89
2023/08/29 04:59:53;;;;;;;1.05;0.43;;;11.50;99.90;;;;;;4952508;28;20059;-89
2023/08/29 05:02:19;;;;;;;1.65;0.50;;;11.50;99.90;;;;;;4949167;28;20463;-88
2023/08/29 05:04:46;;;;;;;1.90;0.50;;;11.50;99.90;;;;;;4948402;28;20075;-88
2023/08/29 05:07:12;;;;;;;1.20;0.50;;;11.60;99.90;;;;;;4951575;28;20038;-89
2023/08/29 05:09:38;;;;;;;0.82;0.43;;;11.70;99.90;;;;;;4949867;28;20023;-89
2023/08/29 05:12:04;;;;;;;1.52;0.55;;;11.80;99.90;;;;;;4948532;28;20035;-89
2023/08/29 05:14:30;;;;;;;1.15;0.50;;;11.80;99.90;;;;;;4966658;28;20047;-89
2023/08/29 05:16:56;;;;;;;1.75;0.60;;;11.80;99.90;;;;;;4964609;28;20480;-89
2023/08/29 05:19:22;;;;;;;1.65;0.50;;;11.80;99.90;;;;;;4947791;28;20435;-90
2023/08/29 05:21:48;;;;;;;1.17;0.55;;;11.80;99.90;;;;;;4960246;28;20108;-89
2023/08/29 05:24:13;;;;;;;1.83;0.50;;;11.80;99.90;;;;;;4952689;28;20050;-88
2023/08/29 05:26:39;;;;;;;1.50;0.50;;;11.80;99.90;;;;;;4951688;28;20031;-89
2023/08/29 05:29:05;;;;;;;1.15;0.45;;;11.80;99.90;;;;;;4953505;28;20110;-89
2023/08/29 05:31:30;;;;;;;1.30;0.60;;;11.80;99.90;;;;;;4950283;28;20042;-89
2023/08/29 05:33:56;;;;;;;2.25;0.60;;;11.80;99.90;;;;;;4947229;28;20038;-89
2023/08/29 05:36:22;;;;;;;1.20;0.50;;;11.80;99.90;;;;;;4949359;28;20043;-89
2023/08/29 05:38:48;;;;;;;2.03;0.50;;;11.70;99.90;;;;;;4946738;28;20063;-89
2023/08/29 05:41:14;;;;;;;1.48;0.60;;;11.80;99.90;;;;;;4944534;28;20031;-89
2023/08/29 05:43:40;;;;;;;1.63;0.50;;;11.80;99.90;;;;;;4934262;28;20122;-87
2023/08/29 05:46:06;;;;;;;1.13;0.50;;;11.90;99.90;;;;;;4932713;28;20035;-86
2023/08/29 05:48:32;;;;;;;1.20;0.52;;;11.90;99.90;;;;;;4939977;28;20058;-87
2023/08/29 05:50:58;;;;;;;1.48;0.60;;;12.00;99.90;;;;;;4935052;28;20478;-88
2023/08/29 05:53:23;;;;;;;1.27;0.57;;;12.00;99.90;;;;;;4933218;28;20042;-86
2023/08/29 05:55:49;;;;;;;1.20;0.50;;;12.00;99.90;;;;;;4937955;28;21058;-86
2023/08/29 05:58:16;;;;;;;1.80;0.60;;;12.10;99.90;;;;;;4945514;28;20410;-87
2023/08/29 06:00:41;;;;;;;1.70;0.60;;;12.10;99.90;;;;;;4934711;28;20130;-87
2023/08/29 06:03:08;;;;;;;2.15;0.70;;;12.20;99.90;;;;;;4932559;28;20054;-86
2023/08/29 06:05:52;;;;;;;1.10;0.50;;;12.20;99.90;;;;;;4947212;28;20054;-85
2023/08/29 06:08:18;;;;;;;1.40;0.70;;;12.10;99.90;;;;;;4933913;28;20058;-85
2023/08/29 06:10:43;;;;;;;1.00;0.50;;;12.20;99.90;;;;;;4948004;28;20494;-84
2023/08/29 06:13:09;;;;;;;3.28;0.60;;;12.30;99.90;;;;;;4939183;28;20039;-86
2023/08/29 06:15:35;;;;;;;1.83;0.90;;;12.30;99.90;;;;;;4946315;28;20046;-88
2023/08/29 06:18:01;;;;;;;1.70;0.80;;;12.40;99.90;;;;;;4946766;28;20031;-86
2023/08/29 06:20:27;;;;;;;1.50;0.70;;;12.40;99.90;;;;;;4946941;28;20155;-86
2023/08/29 06:22:56;;;;;;;1.60;0.60;;;12.40;99.90;;;;;;4947041;28;20613;-86
2023/08/29 06:25:24;;;;;;;3.05;0.63;;;12.50;99.90;;;;;;4933884;28;20038;-87
2023/08/29 06:27:50;;;;;;;3.17;0.73;;;12.50;99.90;;;;;;4933040;28;20047;-84
2023/08/29 06:30:16;;;;;;;1.20;0.50;;;12.50;99.90;;;;;;4939112;28;20565;-87
2023/08/29 06:32:44;;;;;;;1.70;0.70;;;12.60;99.90;;;;;;4932206;28;20122;-88
2023/08/29 06:35:11;;;;;;;2.00;0.95;;;12.70;99.90;;;;;;4956201;28;20057;-87
2023/08/29 06:37:37;;;;;;;2.00;0.60;;;12.70;99.90;;;;;;4944976;28;20211;-86
2023/08/29 06:40:06;;;;;;;2.10;0.73;;;12.80;99.90;;;;;;4932481;28;20072;-85
2023/08/29 06:42:32;;;;;;;3.67;0.77;;;12.90;99.90;;;;;;4932690;28;20031;-87
2023/08/29 06:44:58;;;;;;;1.50;0.60;;;13.00;99.90;;;;;;4938390;28;20411;-84
2023/08/29 06:47:24;;;;;;;1.52;0.70;;;13.10;99.90;;;;;;4945953;28;20047;-85
2023/08/29 06:49:52;;;;;;;1.60;0.70;;;13.20;99.90;;;;;;4933160;28;20133;-88
2023/08/29 06:52:18;;;;;;;2.30;0.65;;;13.30;99.90;;;;;;4932278;28;20038;-85
2023/08/29 06:54:45;;;;;;;1.77;0.60;;;13.30;99.90;;;;;;4931595;28;20043;-86
2023/08/29 06:57:11;;;;;;;1.88;0.70;;;13.50;99.90;;;;;;4936830;28;20042;-85
2023/08/29 06:59:37;;;;;;;5.65;1.00;;;13.60;99.90;;;;;;4946725;28;20882;-86
2023/08/29 07:02:03;;;;;;;1.40;0.68;;;13.80;99.90;;;;;;4938045;28;20032;-87
2023/08/29 07:04:29;;;;;;;1.23;0.60;;;13.90;99.90;;;;;;4939041;28;20058;-86
2023/08/29 07:06:55;;;;;;;1.73;0.70;;;14.10;99.90;;;;;;4930781;28;20031;-86
2023/08/29 07:09:21;;;;;;;2.20;0.60;;;14.20;99.90;;;;;;4936842;28;20031;-85
2023/08/29 07:11:46;;;;;;;2.00;0.60;;;14.30;99.90;;;;;;4946071;28;20436;-87
2023/08/29 07:14:12;;;;;;;1.63;0.77;;;14.30;99.90;;;;;;4938634;28;20074;-86
2023/08/29 07:16:38;;;;;;;1.88;0.85;;;14.50;99.90;;;;;;4930639;28;20090;-86
2023/08/29 07:19:05;;;;;;;1.58;0.60;;;14.60;99.90;;;;;;4945308;28;20120;-86
2023/08/29 07:21:31;;;;;;;1.77;0.60;;;14.70;99.90;;;;;;4938453;28;20028;-86
2023/08/29 07:23:56;;;;;;;1.98;0.65;;;14.80;99.90;;;;;;4948413;28;20035;-85
2023/08/29 07:26:22;;;;;;;1.48;0.57;;;14.90;99.90;;;;;;4937413;28;20049;-86
2023/08/29 07:28:48;;;;;;;2.03;0.60;;;15.00;99.90;;;;;;4932277;28;20074;-86
2023/08/29 07:31:14;;;;;;;1.42;0.70;;;15.30;99.90;;;;;;4936462;28;20593;-88
2023/08/29 07:33:39;;;;;;;1.67;0.60;;;15.50;99.90;;;;;;4944836;28;20962;-85
2023/08/29 07:36:05;;;;;;;2.65;0.68;;;15.70;99.90;;;;;;4931633;28;20047;-84
2023/08/29 07:38:31;;;;;;;1.75;0.70;;;15.60;99.90;;;;;;4935444;28;20027;-84
2023/08/29 07:40:57;;;;;;;1.73;0.80;;;15.90;99.90;;;;;;4940876;28;20491;-84
2023/08/29 07:43:23;;;;;;;2.15;0.60;;;16.00;99.90;;;;;;4932693;28;20082;-84
2023/08/29 07:45:52;;;;;;;1.90;0.60;;;16.10;99.90;;;;;;4937443;28;20055;-85
2023/08/29 07:48:19;;;;;;;1.30;0.50;;;16.20;99.90;;;;;;4931038;28;20385;-85
2023/08/29 07:50:45;;;;;;;3.22;1.35;;;16.20;99.90;;;;;;4931263;28;20034;-85
2023/08/29 07:53:12;;;;;;;2.42;0.73;;;16.10;99.90;;;;;;4932168;28;20051;-84
2023/08/29 07:55:41;;;;;;;1.55;0.50;;;16.50;99.90;;;;;;4934787;28;20630;-87
2023/08/29 07:58:07;;;;;;;2.75;0.50;;;16.90;99.90;;;;;;4930480;28;20039;-85
2023/08/29 08:00:33;;;;;;;2.53;0.50;;;17.00;99.90;;;;;;4931968;28;20047;-85
2023/08/29 08:03:00;;;;;;;0.77;0.30;;;17.10;99.90;;;;;;4930456;28;20048;-84
2023/08/29 08:05:27;;;;;;;1.00;0.40;;;17.30;99.90;;;;;;4932072;28;20546;-86
2023/08/29 08:07:52;;;;;;;1.35;0.30;;;17.10;99.90;;;;;;4931344;28;20038;-87
2023/08/29 08:10:19;;;;;;;1.10;0.40;;;17.30;99.90;;;;;;4945683;28;20081;-85
2023/08/29 08:12:47;;;;;;;1.58;0.40;;;17.50;99.90;;;;;;4931137;28;20039;-85
2023/08/29 08:15:14;;;;;;;1.08;0.30;;;17.60;99.90;;;;;;4927509;28;20478;-85
2023/08/29 08:17:41;;;;;;;0.95;0.30;;;17.60;99.90;;;;;;4942188;28;20046;-83
2023/08/29 08:20:10;;;;;;;1.75;0.40;;;17.70;99.90;;;;;;4933361;28;20043;-85
2023/08/29 08:22:40;;;;;;;1.85;0.40;;;17.60;99.90;;;;;;4944203;28;20060;-84
2023/08/29 08:25:07;;;;;;;1.15;0.40;;;17.80;99.90;;;;;;4929197;28;20155;-85
2023/08/29 08:27:34;;;;;;;1.10;0.40;;;17.70;99.90;;;;;;4930058;28;20121;-87
2023/08/29 08:30:00;;;;;;;2.65;0.52;;;17.50;99.90;;;;;;4942882;28;20065;-85
2023/08/29 08:32:26;;;;;;;2.05;0.63;;;17.40;99.90;;;;;;4929701;28;20507;-85
2023/08/29 08:34:53;;;;;;;1.55;0.30;;;17.40;99.90;;;;;;4945610;28;20050;-86
2023/08/29 08:37:19;;;;;;;2.05;0.40;;;17.40;99.90;;;;;;4944057;28;20411;-84
2023/08/29 08:39:45;;;;;;;1.27;0.40;;;17.30;99.90;;;;;;4930001;28;20112;-85
2023/08/29 08:42:12;;;;;;;2.08;0.40;;;17.30;99.90;;;;;;4928891;28;20519;-84
2023/08/29 08:44:38;;;;;;;0.90;0.30;;;17.40;99.90;;;;;;4942991;28;20126;-84
2023/08/29 08:47:06;;;;;;;1.63;0.30;;;17.50;99.90;;;;;;4940622;28;20032;-83
2023/08/29 08:49:33;;;;;;;1.00;0.40;;;17.50;99.90;;;;;;4919721;28;20128;-87
2023/08/29 08:52:00;;;;;;;2.63;0.38;;;17.60;99.90;;;;;;4928582;28;20078;-86
2023/08/29 08:54:26;;;;;;;1.65;0.30;;;17.50;99.90;;;;;;4947316;28;20851;-84
2023/08/29 08:56:57;;;;;;;0.52;0.10;;;17.60;99.90;;;;;;4938480;28;20080;-83
2023/08/29 08:59:24;;;;;;;1.02;0.20;;;17.50;99.90;;;;;;4953330;28;20388;-84
2023/08/29 09:01:50;;;;;;;0.95;0.10;;;17.50;99.90;;;;;;4926860;28;20045;-83
2023/08/29 09:04:17;;;;;;;0.35;0.10;;;17.60;99.90;;;;;;4928459;28;20407;-85
2023/08/29 09:06:43;;;;;;;0.75;0.10;;;17.70;99.90;;;;;;4925960;28;20038;-82
2023/08/29 09:09:19;;;;;;;2.13;0.20;;;17.70;99.90;;;;;;4940268;28;20134;-82
2023/08/29 09:11:58;;;;;;;1.05;0.10;;;17.60;99.90;;;;;;4941097;28;20082;-82
2023/08/29 09:14:25;;;;;;;1.40;0.20;;;17.90;99.90;;;;;;4942154;28;20074;-81
2023/08/29 09:16:56;;;;;;;1.00;0.20;;;18.00;99.90;;;;;;4939542;28;20082;-84
2023/08/29 09:19:24;;;;;;;2.47;0.40;;;17.70;99.90;;;;;;4943630;28;20408;-81
2023/08/29 09:21:50;;;;;;;0.70;0.20;;;17.70;99.90;;;;;;4941425;28;20071;-81
2023/08/29 09:24:42;;;;;;;1.00;0.30;;;17.90;99.90;;;;;;4946652;28;20055;-83
2023/08/29 09:27:09;;;;;;;0.88;0.20;;;17.90;99.90;;;;;;4948920;28;20118;-83
2023/08/29 09:29:36;;;;;;;0.88;0.40;;;17.90;99.90;;;;;;4931079;28;20035;-84
2023/08/29 09:32:15;;;;;;;1.65;0.22;;;18.20;99.90;;;;;;4944693;28;20038;-81
2023/08/29 09:34:41;;;;;;;0.43;0.10;;;18.20;99.90;;;;;;4944526;28;20384;-82
2023/08/29 09:37:10;;;;;;;0.35;0.10;;;18.50;99.90;;;;;;4942363;28;20089;-83
2023/08/29 09:39:37;;;;;;;1.17;0.03;;;18.90;99.90;;;;;;4941486;28;20035;-83
2023/08/29 09:42:08;;;;;;;0.40;0.10;;;19.10;99.90;;;;;;4934696;28;20061;-82
2023/08/29 09:44:36;;;;;;;0.43;0.10;;;18.90;99.90;;;;;;4936105;28;20034;-82
2023/08/29 09:47:03;;;;;;;0.30;0.10;;;19.00;99.90;;;;;;4945280;28;20081;-83
2023/08/29 09:49:43;;;;;;;0.40;0.10;;;19.20;99.90;;;;;;4930299;28;20155;-82
2023/08/29 09:52:09;;;;;;;;;;;19.10;99.90;;;;;;4942939;28;20531;-81
2023/08/29 09:54:37;;;;;;;0.52;0.10;;;18.80;99.90;;;;;;4919491;28;19925;-82
2023/08/29 09:57:05;;;;;;;0.50;0.10;;;19.00;99.90;;;;;;4943856;28;20035;-82
2023/08/29 09:59:34;;;;;;;0.30;0.10;;;19.30;99.90;;;;;;4930030;28;20554;-82
2023/08/29 10:02:01;;;;;;;0.88;0.10;;;18.90;99.90;;;;;;4930799;28;20039;-83
2023/08/29 10:04:30;;;;;;;0.70;0.10;;;19.10;99.90;;;;;;4945740;28;20053;-84
2023/08/29 10:07:00;;;;;;;1.33;0.10;;;19.30;99.90;;;;;;4929092;28;20594;-84
2023/08/29 10:09:28;;;;;;;0.50;0.10;;;19.30;99.90;;;;;;4948060;28;20201;-84
2023/08/29 10:11:55;;;;;;;0.20;0.10;;;19.00;99.90;;;;;;4930894;28;20035;-85
2023/08/29 10:14:22;;;;;;;0.25;0.00;;;19.40;99.90;;;;;;4942013;28;20062;-84
2023/08/29 10:16:49;;;;;;;0.40;0.10;;;19.70;99.90;;;;;;4929401;28;20037;-84
2023/08/29 10:19:15;;;;;;;0.68;0.10;;;19.10;99.90;;;;;;4940201;28;20035;-83
2023/08/29 10:21:46;;;;;;;0.93;0.10;;;18.70;99.90;;;;;;4945956;28;20027;-83
2023/08/29 10:24:12;;;;;;;1.95;0.10;;;18.50;99.90;;;;;;4945710;28;20492;-83
2023/08/29 10:26:38;;;;;;;0.57;0.10;;;18.40;99.90;;;;;;4961537;28;20511;-89
2023/08/29 10:29:05;;;;;;;0.10;0.00;;;18.40;99.90;;;;;;4957526;28;20479;-87
2023/08/29 10:31:35;;;;;;;0.20;0.10;;;18.70;99.90;;;;;;4942761;28;20046;-85
2023/08/29 10:34:03;;;;;;;0.68;0.00;;;19.30;99.90;;;;;;4966694;28;20050;-84
2023/08/29 10:36:29;;;;;;;0.55;0.00;;;19.90;99.90;;;;;;4936570;28;20440;-83
2023/08/29 10:38:59;;;;;;;0.93;0.10;;;19.70;99.90;;;;;;4942112;28;20039;-84
2023/08/29 10:41:25;;;;;;;0.50;0.10;;;19.70;99.90;;;;;;4930434;28;20046;-82
2023/08/29 10:44:35;;;;;;;0.10;0.00;;;19.90;99.90;;;;;;4942011;28;20068;-84
2023/08/29 10:47:23;;;;;;;0.95;0.10;;;20.20;99.90;;;;;;4931887;28;20049;-83
2023/08/29 10:49:59;;;;;;;0.43;0.10;;;19.80;99.90;;;;;;4939426;28;20039;-84
2023/08/29 10:52:39;;;;;;;0.20;0.10;;;19.40;99.90;;;;;;4945378;28;20035;-82
2023/08/29 10:55:20;;;;;;;0.30;0.10;;;19.80;99.90;;;;;;4928449;28;20055;-83
2023/08/29 10:57:46;;;;;;;0.45;0.08;;;20.80;99.90;;;;;;4939956;28;20113;-83
2023/08/29 11:00:17;;;;;;;0.63;0.10;;;20.60;99.90;;;;;;4928751;28;20043;-82
2023/08/29 11:02:43;;;;;;;0.20;0.10;;;20.10;99.90;;;;;;4928184;28;20541;-83
2023/08/29 11:05:11;;;;;;;0.50;0.10;;;20.30;99.90;;;;;;4926291;28;20050;-83
2023/08/29 11:07:38;;;;;;;1.10;0.10;;;20.20;99.90;;;;;;4935084;28;20470;-83
2023/08/29 11:10:16;;;;;;;0.82;0.00;;;20.50;99.90;;;;;;4942304;28;20039;-82
2023/08/29 11:13:06;;;;;;;0.60;0.10;;;20.20;99.90;;;;;;4931540;28;20041;-83
2023/08/29 11:15:47;;;;;;;0.85;0.10;;;19.90;99.90;;;;;;4927872;28;20058;-83
2023/08/29 11:18:26;;;;;;;0.63;0.10;;;19.90;99.90;;;;;;4927830;28;20058;-84
2023/08/29 11:20:56;;;;;;;0.60;0.10;;;20.40;99.90;;;;;;4933833;28;20042;-83
2023/08/29 11:23:22;;;;;;;0.40;0.10;;;20.30;99.90;;;;;;4946478;28;20046;-84
2023/08/29 11:25:51;;;;;;;0.10;0.00;;;20.90;99.90;;;;;;4939527;28;20054;-82
2023/08/29 11:28:18;;;;;;;0.88;0.10;;;21.10;99.90;;;;;;4931916;28;20484;-83
2023/08/29 11:30:45;;;;;;;0.95;0.10;;;20.60;99.90;;;;;;4943594;28;20047;-83
2023/08/29 11:33:12;;;;;;;0.20;0.10;;;20.50;99.90;;;;;;4944309;28;20940;-83
2023/08/29 11:35:37;;;;;;;0.57;0.10;;;21.40;99.90;;;;;;4931650;28;20070;-85
2023/08/29 11:38:05;;;;;;;0.55;0.10;;;20.80;99.90;;;;;;4932546;28;20169;-83
2023/08/29 11:40:36;;;;;;;0.90;0.10;;;20.80;99.90;;;;;;4943366;28;20137;-85
2023/08/29 11:43:01;;;;;;;0.60;0.10;;;20.80;99.90;;;;;;4927312;28;20034;-83
2023/08/29 11:45:30;;;;;;;0.17;0.00;;;20.70;99.90;;;;;;4926067;28;20097;-82
2023/08/29 11:47:59;;;;;;;0.22;0.00;;;20.80;99.90;;;;;;4928298;28;20027;-84
2023/08/29 11:50:25;;;;;;;0.50;0.10;;;20.80;99.90;;;;;;4928243;28;20035;-84
2023/08/29 11:52:50;;;;;;;2.95;0.20;;;21.00;99.90;;;;;;4941773;28;20042;-83
2023/08/29 11:55:16;;;;;;;0.30;0.10;;;20.80;99.90;;;;;;4939312;28;20530;-82
2023/08/29 11:57:44;;;;;;;0.40;0.20;;;20.80;99.90;;;;;;4944489;28;20614;-82
2023/08/29 12:00:10;;;;;;;0.60;0.10;;;20.70;99.90;;;;;;4941382;28;20043;-82
2023/08/29 12:02:37;;;;;;;0.75;0.20;;;21.10;99.90;;;;;;4940893;28;20041;-81
2023/08/29 12:05:10;;;;;;;1.00;0.17;;;20.70;99.90;;;;;;4927145;28;20063;-84
2023/08/29 12:07:36;;;;;;;2.05;0.10;;;20.70;99.90;;;;;;4932509;28;20059;-82
2023/08/29 12:10:14;;;;;;;1.20;0.20;;;21.10;99.90;;;;;;4932295;28;20221;-83
2023/08/29 12:12:40;;;;;;;1.58;0.20;;;21.80;99.90;;;;;;4929134;28;20035;-83
2023/08/29 12:15:15;;;;;;;1.45;0.25;;;21.60;99.90;;;;;;4926542;28;20078;-83
2023/08/29 12:17:43;;;;;;;1.27;0.30;;;21.70;99.90;;;;;;4933023;28;20035;-85
2023/08/29 12:20:12;;;;;;;0.98;0.20;;;21.00;99.90;;;;;;4939940;28;20038;-81
2023/08/29 12:22:44;;;;;;;1.33;0.30;;;20.80;99.90;;;;;;4940013;28;20236;-83
2023/08/29 12:25:10;;;;;;;0.45;0.20;;;21.10;99.90;;;;;;4939586;28;20089;-82
2023/08/29 12:27:36;;;;;;;1.30;0.20;;;21.60;99.90;;;;;;4944375;28;20039;-86
2023/08/29 12:30:02;;;;;;;1.88;0.15;;;21.70;99.90;;;;;;4932781;28;20114;-82
2023/08/29 12:32:29;;;;;;;0.40;0.10;;;21.50;99.90;;;;;;4927579;28;20781;-83
2023/08/29 12:34:58;;;;;;;0.75;0.20;;;21.50;99.90;;;;;;4938376;28;20540;-82
2023/08/29 12:37:25;;;;;;;0.60;0.20;;;20.90;99.90;;;;;;4928770;28;20039;-82
2023/08/29 12:39:51;;;;;;;1.58;0.20;;;20.50;99.90;;;;;;4927438;28;20126;-85
2023/08/29 12:42:17;;;;;;;0.68;0.20;;;20.70;99.90;;;;;;4928098;28;20118;-81
2023/08/29 12:44:43;;;;;;;1.08;0.10;;;21.60;99.90;;;;;;4942944;28;20035;-80
2023/08/29 12:47:09;;;;;;;0.28;0.10;;;21.80;99.90;;;;;;4936658;28;20512;-82
2023/08/29 12:49:35;;;;;;;2.38;0.30;;;21.90;99.90;;;;;;4926632;28;20444;-81